Time;durP1;ratioP1;P1;durP2;ratioP2;P2;SDS_P1;SDS_P2;PMS_P1;PMS_P2;Temp;Humidity;BMP_temperature;BMP_pressure;BME280_temperature;BME280_humidity;BME280_pressure;Samples;Min_cycle;Max_cycle;Signal;HPM_P1;HPM_P2
2022/02/21 00:00:27;;;;;;;3.08;0.73;;;9.80;99.90;;;;;;5052999;28;20368;-65
2022/02/21 00:02:56;;;;;;;2.58;0.77;;;9.70;99.90;;;;;;5067954;28;20033;-64
2022/02/21 00:05:23;;;;;;;3.28;0.77;;;9.80;99.90;;;;;;5070864;28;20074;-65
2022/02/21 00:07:51;;;;;;;3.38;0.90;;;9.80;99.90;;;;;;5071899;28;20044;-63
2022/02/21 00:10:22;;;;;;;3.78;0.90;;;9.80;99.90;;;;;;5072284;28;20052;-65
2022/02/21 00:12:50;;;;;;;3.33;1.00;;;9.80;99.90;;;;;;5071112;28;20075;-66
2022/02/21 00:15:23;;;;;;;2.80;0.88;;;9.80;99.90;;;;;;5071191;28;20071;-66
2022/02/21 00:17:52;;;;;;;5.85;1.05;;;9.80;99.90;;;;;;5071542;28;20040;-64
2022/02/21 00:20:20;;;;;;;3.50;0.90;;;9.80;99.90;;;;;;5071037;28;20051;-65
2022/02/21 00:22:49;;;;;;;3.28;0.70;;;9.80;99.90;;;;;;5070823;28;20051;-64
2022/02/21 00:25:17;;;;;;;3.90;1.33;;;9.80;99.90;;;;;;5057488;28;20155;-65
2022/02/21 00:27:44;;;;;;;3.65;0.80;;;9.80;99.90;;;;;;5072220;28;20128;-66
2022/02/21 00:30:12;;;;;;;1.40;0.77;;;9.80;99.90;;;;;;5071450;28;20392;-65
2022/02/21 00:32:39;;;;;;;3.00;0.95;;;9.80;99.90;;;;;;5070924;28;20094;-66
2022/02/21 00:35:07;;;;;;;2.35;0.95;;;9.80;99.90;;;;;;5071379;28;20602;-66
2022/02/21 00:37:36;;;;;;;2.30;0.70;;;9.80;99.90;;;;;;5071293;28;20036;-66
2022/02/21 00:40:05;;;;;;;1.42;0.80;;;9.80;99.90;;;;;;5062813;28;20598;-65
2022/02/21 00:42:32;;;;;;;2.42;0.65;;;9.80;99.90;;;;;;5071395;28;20054;-65
2022/02/21 00:45:00;;;;;;;1.75;0.70;;;9.80;99.90;;;;;;5071022;28;20041;-64
2022/02/21 00:47:29;;;;;;;1.92;0.80;;;9.80;99.90;;;;;;5051266;28;20139;-66
2022/02/21 00:49:57;;;;;;;2.25;0.90;;;9.80;99.90;;;;;;5056514;28;20044;-65
2022/02/21 00:52:24;;;;;;;1.27;0.60;;;9.70;99.90;;;;;;5069671;28;20043;-65
2022/02/21 00:54:51;;;;;;;3.75;0.70;;;9.70;99.90;;;;;;5065184;28;20094;-64
2022/02/21 00:57:19;;;;;;;2.67;0.90;;;9.70;99.90;;;;;;5058136;28;20039;-65
2022/02/21 00:59:48;;;;;;;1.58;0.70;;;9.70;99.90;;;;;;5057334;28;20064;-65
2022/02/21 01:02:15;;;;;;;3.70;0.90;;;9.70;99.90;;;;;;5061107;28;20151;-65
2022/02/21 01:04:42;;;;;;;2.85;0.70;;;9.80;99.90;;;;;;5052320;28;20036;-65
2022/02/21 01:07:10;;;;;;;3.97;0.80;;;9.80;99.90;;;;;;5070305;28;20419;-65
2022/02/21 01:09:37;;;;;;;5.18;0.70;;;9.80;99.90;;;;;;5069981;28;20884;-62
2022/02/21 01:12:05;;;;;;;2.83;0.90;;;9.80;99.90;;;;;;5069781;28;20060;-65
2022/02/21 01:14:33;;;;;;;4.53;1.08;;;9.80;99.90;;;;;;5070536;28;20479;-65
2022/02/21 01:17:00;;;;;;;3.67;1.00;;;9.80;99.90;;;;;;5069663;28;20041;-66
2022/02/21 01:19:27;;;;;;;3.45;0.82;;;9.80;99.90;;;;;;5070783;28;20056;-67
2022/02/21 01:21:54;;;;;;;15.55;1.30;;;9.80;99.90;;;;;;5070453;28;20041;-65
2022/02/21 01:24:22;;;;;;;2.42;0.85;;;9.90;99.90;;;;;;5071115;28;20084;-67
2022/02/21 01:26:49;;;;;;;4.03;1.10;;;9.80;99.90;;;;;;5070459;28;20055;-65
2022/02/21 01:29:17;;;;;;;2.92;0.80;;;9.80;99.90;;;;;;5071351;28;20040;-66
2022/02/21 01:31:44;;;;;;;2.40;0.82;;;9.80;99.90;;;;;;5070301;28;20046;-67
2022/02/21 01:34:11;;;;;;;2.75;0.90;;;9.90;99.90;;;;;;5052247;28;20507;-66
2022/02/21 01:36:40;;;;;;;5.13;1.10;;;9.90;99.90;;;;;;5070916;28;20044;-64
2022/02/21 01:39:08;;;;;;;2.17;0.90;;;9.90;99.90;;;;;;5070969;28;20040;-65
2022/02/21 01:41:35;;;;;;;7.03;1.20;;;9.90;99.90;;;;;;5052161;28;20041;-64
2022/02/21 01:44:13;;;;;;;4.05;1.00;;;9.90;99.90;;;;;;5071143;28;20554;-66
2022/02/21 01:46:41;;;;;;;4.65;1.10;;;9.90;99.90;;;;;;5070105;28;20492;-66
2022/02/21 01:49:10;;;;;;;3.85;1.30;;;9.90;99.90;;;;;;5070380;28;20063;-65
2022/02/21 01:51:39;;;;;;;5.18;0.90;;;10.00;99.90;;;;;;5052327;28;20055;-64
2022/02/21 01:54:09;;;;;;;1.65;0.93;;;10.00;99.90;;;;;;5045002;28;20533;-65
2022/02/21 01:56:37;;;;;;;4.88;0.98;;;10.00;99.90;;;;;;5062095;28;20060;-66
2022/02/21 01:59:06;;;;;;;3.58;1.00;;;10.00;99.90;;;;;;5064349;28;20044;-62
2022/02/21 02:01:34;;;;;;;3.67;1.00;;;10.10;99.90;;;;;;5069465;28;20052;-65
2022/02/21 02:04:03;;;;;;;2.78;0.82;;;10.00;99.90;;;;;;5069422;28;20063;-65
2022/02/21 02:06:31;;;;;;;4.40;0.70;;;10.00;99.90;;;;;;5069471;28;20037;-64
2022/02/21 02:08:58;;;;;;;3.08;0.98;;;10.10;99.90;;;;;;5069803;28;20048;-64
2022/02/21 02:11:26;;;;;;;3.97;1.00;;;10.00;99.90;;;;;;5069371;28;20128;-63
2022/02/21 02:13:54;;;;;;;4.07;1.10;;;10.10;99.90;;;;;;5052039;28;20128;-64
2022/02/21 02:16:21;;;;;;;2.92;0.85;;;10.10;99.90;;;;;;5068644;28;20057;-64
2022/02/21 02:18:49;;;;;;;3.83;0.88;;;10.10;99.90;;;;;;5069568;28;20047;-64
2022/02/21 02:21:26;;;;;;;3.08;0.80;;;10.10;99.90;;;;;;5068831;28;20036;-64
2022/02/21 02:23:55;;;;;;;2.50;0.73;;;10.10;99.90;;;;;;5069618;28;20073;-66
2022/02/21 02:26:23;;;;;;;3.92;0.98;;;10.10;99.90;;;;;;5051065;28;20040;-66
2022/02/21 02:28:52;;;;;;;4.80;0.80;;;10.10;99.90;;;;;;5066267;28;20436;-63
2022/02/21 02:31:20;;;;;;;4.25;1.00;;;10.20;99.90;;;;;;5058805;28;20043;-64
2022/02/21 02:33:47;;;;;;;2.47;0.90;;;10.10;99.90;;;;;;5065081;28;20994;-65
2022/02/21 02:36:15;;;;;;;5.07;1.10;;;10.10;99.90;;;;;;5064007;28;20028;-63
2022/02/21 02:38:42;;;;;;;5.40;1.13;;;10.10;99.90;;;;;;5062401;28;20045;-67
2022/02/21 02:41:10;;;;;;;7.85;1.30;;;10.10;99.90;;;;;;5059579;28;20509;-63
2022/02/21 02:43:41;;;;;;;2.70;0.82;;;10.10;99.90;;;;;;5055952;28;20048;-63
2022/02/21 02:46:08;;;;;;;2.13;0.80;;;10.10;99.90;;;;;;5060764;28;20492;-64
2022/02/21 02:48:35;;;;;;;4.30;0.75;;;10.10;99.90;;;;;;5052584;28;20056;-63
2022/02/21 02:51:03;;;;;;;2.60;0.93;;;10.10;99.90;;;;;;5061028;28;20071;-65
2022/02/21 02:53:30;;;;;;;3.90;0.80;;;10.10;99.90;;;;;;5063913;28;20052;-64
2022/02/21 02:55:58;;;;;;;2.65;0.85;;;10.10;99.90;;;;;;5066382;28;20045;-65
2022/02/21 02:58:26;;;;;;;2.75;0.90;;;10.00;99.90;;;;;;5057725;28;20044;-63
2022/02/21 03:00:54;;;;;;;2.58;0.80;;;10.00;99.90;;;;;;5066547;28;20098;-65
2022/02/21 03:03:22;;;;;;;2.63;0.73;;;9.90;99.90;;;;;;5068662;28;20419;-65
2022/02/21 03:05:49;;;;;;;2.42;0.70;;;9.90;99.90;;;;;;5066577;28;20383;-67
2022/02/21 03:08:16;;;;;;;5.43;1.02;;;9.90;99.90;;;;;;5054677;28;20102;-66
2022/02/21 03:10:44;;;;;;;2.42;0.88;;;9.80;99.90;;;;;;5066177;28;20055;-63
2022/02/21 03:13:11;;;;;;;2.53;0.85;;;9.80;99.90;;;;;;5068865;28;20040;-64
2022/02/21 03:15:38;;;;;;;1.70;0.70;;;9.80;99.90;;;;;;5050022;28;20075;-65
2022/02/21 03:18:05;;;;;;;3.97;0.88;;;9.80;99.90;;;;;;5067730;28;20052;-66
2022/02/21 03:20:33;;;;;;;3.00;0.68;;;9.80;99.90;;;;;;5050769;28;20052;-65
2022/02/21 03:23:01;;;;;;;2.38;0.77;;;9.80;99.90;;;;;;5066505;28;20064;-65
2022/02/21 03:25:28;;;;;;;12.77;2.22;;;9.80;99.90;;;;;;5066112;28;20055;-65
2022/02/21 03:27:56;;;;;;;1.65;0.70;;;9.80;99.90;;;;;;5066265;28;20047;-63
2022/02/21 03:30:23;;;;;;;1.85;0.80;;;9.80;99.90;;;;;;5068343;28;20048;-63
2022/02/21 03:32:52;;;;;;;2.85;1.17;;;9.80;99.90;;;;;;5065898;28;20044;-62
2022/02/21 03:35:19;;;;;;;4.28;0.90;;;9.80;99.90;;;;;;5050380;28;20110;-65
2022/02/21 03:37:47;;;;;;;4.35;1.15;;;9.70;99.90;;;;;;5066044;28;20048;-65
2022/02/21 03:40:14;;;;;;;3.88;0.90;;;9.70;99.90;;;;;;5049138;28;20109;-62
2022/02/21 03:42:43;;;;;;;3.45;0.80;;;9.60;99.90;;;;;;5068357;28;20527;-63
2022/02/21 03:45:10;;;;;;;2.28;0.77;;;9.60;99.90;;;;;;5067192;28;20071;-63
2022/02/21 03:47:38;;;;;;;1.85;0.75;;;9.60;99.90;;;;;;5068462;28;20048;-64
2022/02/21 03:50:06;;;;;;;5.13;1.38;;;9.60;99.90;;;;;;5067464;28;20053;-66
2022/02/21 03:52:33;;;;;;;3.72;0.80;;;9.60;99.90;;;;;;5066373;28;20136;-68
2022/02/21 03:55:01;;;;;;;2.95;0.70;;;9.60;99.90;;;;;;5048278;28;20059;-66
2022/02/21 03:57:28;;;;;;;3.22;0.50;;;9.70;99.90;;;;;;5066454;28;20555;-66
2022/02/21 03:59:55;;;;;;;3.17;0.90;;;9.70;99.90;;;;;;5067469;28;20037;-67
2022/02/21 04:02:22;;;;;;;3.90;0.85;;;8.70;99.90;;;;;;5036222;28;20049;-67
2022/02/21 04:04:50;;;;;;;6.15;1.13;;;5.50;99.90;;;;;;5063574;28;20067;-64
2022/02/21 04:07:17;;;;;;;2.83;0.82;;;3.90;99.90;;;;;;5067369;28;20475;-65
2022/02/21 04:09:44;;;;;;;2.60;0.60;;;3.20;99.90;;;;;;5067054;28;20048;-65
2022/02/21 04:12:12;;;;;;;1.67;0.80;;;2.90;99.90;;;;;;5066226;28;20372;-68
2022/02/21 04:14:39;;;;;;;3.17;0.70;;;2.70;99.90;;;;;;5066569;28;20152;-66
2022/02/21 04:17:06;;;;;;;2.90;0.80;;;2.70;99.90;;;;;;5057484;28;20045;-67
2022/02/21 04:19:33;;;;;;;3.78;1.02;;;2.70;99.90;;;;;;5066178;28;20040;-66
2022/02/21 04:22:01;;;;;;;4.35;1.10;;;2.60;99.90;;;;;;5067260;28;20083;-66
2022/02/21 04:24:28;;;;;;;4.35;0.98;;;2.60;99.90;;;;;;5067259;28;20379;-64
2022/02/21 04:26:55;;;;;;;4.57;1.33;;;2.60;99.90;;;;;;5068922;28;20040;-67
2022/02/21 04:29:23;;;;;;;3.72;1.05;;;2.60;99.90;;;;;;5070651;28;20041;-63
2022/02/21 04:31:50;;;;;;;6.13;1.20;;;2.60;99.90;;;;;;5056807;28;20044;-63
2022/02/21 04:34:17;;;;;;;6.10;1.52;;;2.70;99.90;;;;;;5070392;28;20379;-62
2022/02/21 04:36:44;;;;;;;11.32;2.05;;;2.70;99.90;;;;;;5070038;28;20044;-65
2022/02/21 04:39:12;;;;;;;3.92;1.00;;;2.80;99.90;;;;;;5071700;28;20063;-68
2022/02/21 04:41:39;;;;;;;3.35;1.00;;;2.90;99.90;;;;;;5070558;28;20514;-67
2022/02/21 04:44:06;;;;;;;6.28;1.27;;;2.90;99.90;;;;;;5072209;28;20040;-67
2022/02/21 04:46:34;;;;;;;4.78;1.00;;;2.90;99.90;;;;;;5070624;28;20037;-65
2022/02/21 04:49:02;;;;;;;8.02;1.30;;;3.00;99.90;;;;;;5070987;28;20447;-65
2022/02/21 04:51:29;;;;;;;7.82;1.63;;;3.00;99.90;;;;;;5070034;28;20040;-67
2022/02/21 04:53:57;;;;;;;3.75;1.20;;;3.10;99.90;;;;;;5069934;28;20393;-65
2022/02/21 04:56:24;;;;;;;9.20;1.55;;;3.20;99.90;;;;;;5052729;28;20571;-65
2022/02/21 04:58:51;;;;;;;5.13;1.13;;;3.20;99.90;;;;;;5068072;28;20040;-64
2022/02/21 05:01:19;;;;;;;5.10;1.08;;;3.30;99.90;;;;;;5068899;28;20075;-67
2022/02/21 05:03:46;;;;;;;3.83;1.00;;;3.50;99.90;;;;;;5071776;28;20051;-65
2022/02/21 05:06:14;;;;;;;4.05;1.15;;;3.60;99.90;;;;;;5071095;28;20029;-64
2022/02/21 05:08:41;;;;;;;6.57;1.13;;;3.70;99.90;;;;;;5071146;28;20498;-65
2022/02/21 05:11:08;;;;;;;5.13;1.20;;;3.70;99.90;;;;;;5070643;28;20410;-67
2022/02/21 05:13:39;;;;;;;7.70;1.38;;;3.90;99.90;;;;;;5052421;28;20048;-66
2022/02/21 05:16:07;;;;;;;5.45;1.10;;;3.90;99.90;;;;;;5050953;28;20053;-66
2022/02/21 05:18:34;;;;;;;3.78;1.30;;;3.90;99.90;;;;;;5032167;28;20507;-65
2022/02/21 05:21:01;;;;;;;8.63;1.10;;;3.90;99.90;;;;;;5052759;28;20514;-66
2022/02/21 05:23:28;;;;;;;6.93;1.40;;;4.00;99.90;;;;;;5070985;28;20087;-66
2022/02/21 05:25:56;;;;;;;6.18;1.30;;;4.10;99.90;;;;;;5071430;28;20495;-64
2022/02/21 05:28:23;;;;;;;5.78;1.40;;;4.20;99.90;;;;;;5070028;28;20525;-66
2022/02/21 05:30:50;;;;;;;4.00;1.20;;;4.20;99.90;;;;;;5052415;28;20048;-68
2022/02/21 05:33:17;;;;;;;7.65;1.40;;;4.20;99.90;;;;;;5049227;28;20044;-65
2022/02/21 05:35:45;;;;;;;11.77;1.63;;;4.30;99.90;;;;;;5064565;28;20475;-65
2022/02/21 05:38:12;;;;;;;8.15;1.45;;;4.40;99.90;;;;;;5068081;28;20041;-67
2022/02/21 05:40:39;;;;;;;4.53;1.05;;;4.40;99.90;;;;;;5070531;28;20482;-66
2022/02/21 05:43:07;;;;;;;5.75;1.45;;;4.50;99.90;;;;;;5042789;28;20049;-68
2022/02/21 05:45:34;;;;;;;5.63;1.35;;;4.40;99.90;;;;;;5050244;28;20044;-65
2022/02/21 05:48:01;;;;;;;5.32;1.27;;;4.50;99.90;;;;;;5069683;28;20485;-66
2022/02/21 05:50:28;;;;;;;3.38;1.40;;;4.50;99.90;;;;;;5068650;28;20052;-66
2022/02/21 05:52:56;;;;;;;6.72;1.38;;;4.50;99.90;;;;;;5069736;28;20426;-65
2022/02/21 05:55:23;;;;;;;8.50;1.90;;;4.50;99.90;;;;;;5069731;28;20048;-65
2022/02/21 05:57:56;;;;;;;8.30;1.67;;;4.50;99.90;;;;;;5051857;28;20048;-67
2022/02/21 06:00:24;;;;;;;6.53;1.80;;;4.50;99.90;;;;;;5058245;28;20045;-66
2022/02/21 06:02:52;;;;;;;8.32;1.60;;;4.40;99.90;;;;;;5048449;28;20041;-64
2022/02/21 06:05:19;;;;;;;7.50;1.48;;;4.30;99.90;;;;;;5066486;28;20045;-64
2022/02/21 06:07:46;;;;;;;6.47;1.95;;;4.20;99.90;;;;;;5055104;28;20506;-67
2022/02/21 06:10:14;;;;;;;4.07;1.40;;;4.10;99.90;;;;;;5064084;28;20047;-66
2022/02/21 06:12:42;;;;;;;8.40;1.80;;;3.90;99.90;;;;;;5065867;28;20106;-65
2022/02/21 06:15:10;;;;;;;4.78;2.08;;;3.90;99.90;;;;;;5064831;28;20063;-64
2022/02/21 06:17:38;;;;;;;7.13;1.40;;;3.80;99.90;;;;;;5061432;28;20056;-66
2022/02/21 06:20:06;;;;;;;4.30;1.52;;;3.80;99.90;;;;;;5066252;28;20047;-67
2022/02/21 06:22:33;;;;;;;5.75;1.70;;;3.80;99.90;;;;;;5039390;28;20049;-66
2022/02/21 06:25:01;;;;;;;5.65;1.48;;;3.70;99.90;;;;;;5036343;28;20044;-66
2022/02/21 06:27:29;;;;;;;3.17;1.25;;;3.70;99.90;;;;;;5084303;28;20041;-67
2022/02/21 06:29:56;;;;;;;4.10;1.45;;;3.70;99.90;;;;;;5067123;28;20499;-66
2022/02/21 06:32:24;;;;;;;7.75;1.73;;;3.60;99.90;;;;;;5068446;28;20052;-66
2022/02/21 06:34:51;;;;;;;7.78;1.45;;;3.60;99.90;;;;;;5060004;28;20051;-67
2022/02/21 06:37:19;;;;;;;7.00;1.55;;;3.60;99.90;;;;;;5065368;28;20552;-66
2022/02/21 06:39:46;;;;;;;11.20;1.83;;;3.70;99.90;;;;;;5045948;28;20056;-67
2022/02/21 06:42:13;;;;;;;8.93;1.60;;;3.80;99.90;;;;;;5051597;28;20048;-66
2022/02/21 06:44:41;;;;;;;9.52;1.85;;;3.90;99.90;;;;;;5068579;28;20043;-67
2022/02/21 06:47:08;;;;;;;8.48;1.80;;;4.00;99.90;;;;;;5051422;28;20059;-67
2022/02/21 06:49:35;;;;;;;8.02;1.85;;;4.10;99.90;;;;;;5045276;28;20049;-66
2022/02/21 06:52:02;;;;;;;7.68;1.98;;;4.30;99.90;;;;;;5065324;28;20556;-66
2022/02/21 06:54:34;;;;;;;9.30;2.05;;;4.30;99.90;;;;;;5070473;28;20036;-66
2022/02/21 06:57:01;;;;;;;5.63;1.55;;;4.40;99.90;;;;;;5048487;28;20056;-67
2022/02/21 06:59:29;;;;;;;5.82;1.70;;;4.50;99.90;;;;;;5050543;28;20517;-67
2022/02/21 07:01:56;;;;;;;9.38;2.00;;;4.60;99.90;;;;;;5058799;28;20029;-66
2022/02/21 07:04:24;;;;;;;8.63;1.83;;;4.60;99.90;;;;;;5047262;28;20044;-67
2022/02/21 07:06:51;;;;;;;5.78;1.55;;;4.60;99.90;;;;;;5062077;28;20032;-68
2022/02/21 07:09:18;;;;;;;9.60;1.90;;;4.60;99.90;;;;;;5062548;28;20045;-67
2022/02/21 07:11:47;;;;;;;9.63;2.00;;;4.60;99.90;;;;;;5056772;28;20131;-67
2022/02/21 07:14:14;;;;;;;5.13;1.50;;;4.70;99.90;;;;;;5069825;28;20048;-67
2022/02/21 07:16:41;;;;;;;6.78;2.25;;;4.80;99.90;;;;;;5064948;28;20087;-67
2022/02/21 07:19:08;;;;;;;4.70;1.65;;;4.80;99.90;;;;;;5055260;28;20561;-66
2022/02/21 07:21:35;;;;;;;7.68;2.00;;;4.90;99.90;;;;;;5066908;28;20049;-68
2022/02/21 07:24:03;;;;;;;5.60;1.83;;;4.90;99.90;;;;;;5069345;28;20134;-68
2022/02/21 07:26:31;;;;;;;9.70;1.95;;;4.90;99.90;;;;;;5060910;28;20471;-68
2022/02/21 07:28:59;;;;;;;5.50;1.50;;;5.00;99.90;;;;;;5048072;28;20048;-68
2022/02/21 07:31:26;;;;;;;5.88;1.73;;;5.00;99.90;;;;;;5068405;28;20601;-67
2022/02/21 07:33:53;;;;;;;10.93;2.05;;;5.00;99.90;;;;;;5057442;28;20037;-66
2022/02/21 07:36:20;;;;;;;11.35;1.88;;;4.90;99.90;;;;;;5037165;28;20049;-68
2022/02/21 07:38:48;;;;;;;9.30;2.13;;;4.90;99.90;;;;;;5070045;28;20600;-67
2022/02/21 07:41:15;;;;;;;8.75;1.67;;;4.90;99.90;;;;;;5068888;28;20414;-67
2022/02/21 07:43:42;;;;;;;6.10;1.67;;;4.90;99.90;;;;;;5060991;28;20060;-68
2022/02/21 07:46:11;;;;;;;7.40;1.40;;;4.90;99.90;;;;;;5069628;28;20055;-67
2022/02/21 07:48:38;;;;;;;7.60;1.30;;;5.00;99.90;;;;;;5069043;28;20052;-66
2022/02/21 07:51:06;;;;;;;5.75;1.60;;;5.00;99.90;;;;;;5042223;28;20056;-68
2022/02/21 07:53:34;;;;;;;6.90;2.05;;;5.10;99.90;;;;;;5040249;28;20135;-67
2022/02/21 07:56:01;;;;;;;6.15;1.42;;;5.00;99.90;;;;;;5053214;28;20033;-68
2022/02/21 07:58:28;;;;;;;5.40;1.40;;;5.00;99.90;;;;;;5057228;28;20048;-66
2022/02/21 08:00:56;;;;;;;7.10;1.65;;;5.10;99.90;;;;;;5069573;28;20059;-68
2022/02/21 08:03:25;;;;;;;9.52;1.70;;;5.10;99.90;;;;;;5057300;28;20634;-69
2022/02/21 08:05:55;;;;;;;11.02;1.90;;;5.10;99.90;;;;;;5067707;28;20047;-67
2022/02/21 08:08:25;;;;;;;6.70;1.85;;;5.10;99.90;;;;;;5055375;28;20515;-68
2022/02/21 08:10:52;;;;;;;7.43;1.50;;;5.00;99.90;;;;;;5073074;28;20076;-69
2022/02/21 08:13:19;;;;;;;9.63;2.00;;;4.90;99.90;;;;;;5054010;28;20056;-67
2022/02/21 08:15:47;;;;;;;10.13;2.20;;;4.80;99.90;;;;;;5058445;28;20076;-66
2022/02/21 08:18:14;;;;;;;8.32;1.90;;;4.80;99.90;;;;;;5065477;28;20049;-67
2022/02/21 08:20:41;;;;;;;9.80;3.03;;;4.70;99.90;;;;;;5053033;28;20059;-66
2022/02/21 08:23:09;;;;;;;10.82;2.03;;;4.70;99.90;;;;;;5065262;28;20045;-67
2022/02/21 08:25:36;;;;;;;8.25;1.85;;;4.70;99.90;;;;;;5071967;28;20063;-66
2022/02/21 08:28:04;;;;;;;8.90;1.83;;;4.70;99.90;;;;;;5070770;28;20045;-66
2022/02/21 08:30:31;;;;;;;9.27;1.73;;;4.90;99.90;;;;;;5036452;28;20495;-69
2022/02/21 08:32:58;;;;;;;12.70;2.38;;;4.90;99.90;;;;;;5062836;28;20040;-68
2022/02/21 08:35:26;;;;;;;8.32;1.88;;;5.00;99.90;;;;;;5066685;28;20047;-67
2022/02/21 08:37:53;;;;;;;5.90;1.60;;;5.00;99.90;;;;;;5071539;28;20166;-66
2022/02/21 08:40:22;;;;;;;5.55;1.60;;;5.10;99.90;;;;;;5067208;28;20041;-68
2022/02/21 08:42:49;;;;;;;7.90;2.20;;;5.20;99.90;;;;;;5051112;28;20067;-67
2022/02/21 08:45:17;;;;;;;10.13;1.77;;;5.30;99.90;;;;;;5059803;28;20041;-66
2022/02/21 08:47:45;;;;;;;7.40;1.92;;;5.30;99.90;;;;;;5061528;28;20226;-67
2022/02/21 08:50:12;;;;;;;12.60;2.10;;;5.30;99.90;;;;;;5071685;28;20048;-66
2022/02/21 08:52:41;;;;;;;7.63;1.95;;;5.40;99.90;;;;;;5069929;28;20055;-67
2022/02/21 08:55:11;;;;;;;10.63;2.17;;;5.60;99.90;;;;;;5070673;28;20045;-67
2022/02/21 08:57:39;;;;;;;8.85;1.88;;;5.60;99.90;;;;;;5068411;28;20040;-67
2022/02/21 09:00:09;;;;;;;11.25;2.20;;;5.60;99.90;;;;;;5070126;28;20041;-68
2022/02/21 09:02:37;;;;;;;7.95;2.15;;;5.70;99.90;;;;;;5047470;28;20400;-66
2022/02/21 09:05:25;;;;;;;8.20;1.80;;;5.80;99.90;;;;;;5052811;28;20090;-66
2022/02/21 09:07:53;;;;;;;10.57;2.10;;;5.80;99.90;;;;;;5068104;28;20427;-67
2022/02/21 09:10:20;;;;;;;9.10;2.35;;;5.80;99.90;;;;;;5053597;28;20127;-66
2022/02/21 09:12:47;;;;;;;9.60;2.15;;;5.80;99.90;;;;;;5068762;28;20117;-68
2022/02/21 09:15:19;;;;;;;6.00;1.65;;;5.70;99.90;;;;;;5070700;28;20055;-68
2022/02/21 09:17:47;;;;;;;12.45;2.65;;;5.70;99.90;;;;;;5072361;28;20491;-68
2022/02/21 09:20:15;;;;;;;10.63;2.03;;;5.70;99.90;;;;;;5071607;28;20071;-66
2022/02/21 09:22:43;;;;;;;10.60;2.10;;;5.60;99.90;;;;;;5071696;28;20033;-66
2022/02/21 09:25:11;;;;;;;9.85;2.13;;;5.60;99.90;;;;;;5049223;28;20049;-69
2022/02/21 09:27:38;;;;;;;11.88;2.50;;;5.70;99.90;;;;;;5070723;28;20102;-67
2022/02/21 09:30:07;;;;;;;12.85;2.55;;;5.70;99.90;;;;;;5067349;28;20102;-66
2022/02/21 09:32:34;;;;;;;13.77;2.35;;;5.70;99.90;;;;;;5059235;28;20041;-66
2022/02/21 09:35:01;;;;;;;9.20;2.13;;;5.70;99.90;;;;;;5056367;28;20131;-69
2022/02/21 09:37:32;;;;;;;14.98;2.67;;;5.80;99.90;;;;;;5069046;28;20048;-68
2022/02/21 09:39:59;;;;;;;12.35;2.50;;;5.90;99.90;;;;;;5069471;28;20040;-67
2022/02/21 09:42:31;;;;;;;8.95;2.03;;;6.10;99.90;;;;;;5070937;28;20479;-67
2022/02/21 09:44:59;;;;;;;11.35;2.75;;;6.20;99.90;;;;;;5070530;28;20096;-66
2022/02/21 09:47:28;;;;;;;9.40;2.58;;;6.20;99.90;;;;;;5054085;28;20475;-68
2022/02/21 09:49:56;;;;;;;8.75;2.30;;;6.30;99.90;;;;;;5060078;28;20041;-66
2022/02/21 09:52:25;;;;;;;13.65;2.60;;;6.40;99.90;;;;;;5069114;28;20060;-69
2022/02/21 09:54:52;;;;;;;10.20;2.28;;;6.40;99.90;;;;;;5069382;28;20040;-68
2022/02/21 09:57:21;;;;;;;13.30;2.70;;;6.30;99.90;;;;;;5070174;28;20050;-68
2022/02/21 09:59:48;;;;;;;16.73;2.63;;;6.40;99.90;;;;;;5056933;28;20043;-68
2022/02/21 10:02:24;;;;;;;14.93;2.97;;;6.50;99.90;;;;;;5070775;28;20040;-67
2022/02/21 10:05:26;;;;;;;8.18;1.92;;;6.40;99.90;;;;;;5069731;28;20047;-67
2022/02/21 10:07:55;;;;;;;9.23;1.98;;;6.30;99.90;;;;;;5069557;28;20047;-67
2022/02/21 10:10:24;;;;;;;10.57;2.17;;;6.20;99.90;;;;;;5069319;28;20048;-66
2022/02/21 10:13:00;;;;;;;10.57;2.78;;;6.20;99.90;;;;;;5069498;28;20119;-67
2022/02/21 10:15:30;;;;;;;10.90;2.22;;;6.30;99.90;;;;;;5068042;28;20463;-66
2022/02/21 10:18:17;;;;;;;15.95;2.33;;;6.50;99.90;;;;;;5068844;28;20044;-65
2022/02/21 10:20:54;;;;;;;11.98;2.22;;;6.60;99.90;;;;;;5066724;28;20040;-67
2022/02/21 10:23:22;;;;;;;9.75;1.90;;;6.60;99.90;;;;;;5049726;28;20040;-68
2022/02/21 10:26:00;;;;;;;11.82;2.60;;;6.60;99.90;;;;;;5069179;28;20041;-67
2022/02/21 10:28:31;;;;;;;10.63;2.10;;;6.70;99.90;;;;;;5069231;28;20033;-67
2022/02/21 10:31:12;;;;;;;17.65;2.22;;;6.60;99.90;;;;;;5059824;28;20072;-69
2022/02/21 10:33:46;;;;;;;12.27;2.28;;;6.50;99.90;;;;;;5067502;28;20472;-68
2022/02/21 10:36:28;;;;;;;12.77;1.98;;;6.60;99.90;;;;;;5061526;28;20500;-65
2022/02/21 10:38:56;;;;;;;14.07;2.73;;;6.80;99.90;;;;;;5043690;28;20052;-67
2022/02/21 10:41:47;;;;;;;9.85;2.35;;;7.00;99.90;;;;;;5040690;28;20147;-66
2022/02/21 10:44:24;;;;;;;11.77;2.70;;;6.90;99.90;;;;;;5061700;28;20052;-67
2022/02/21 10:47:00;;;;;;;11.73;2.13;;;6.90;99.90;;;;;;5067312;28;20064;-66
2022/02/21 10:50:00;;;;;;;12.85;2.58;;;6.80;99.90;;;;;;5047569;28;20052;-67
2022/02/21 10:52:35;;;;;;;9.95;2.00;;;6.80;99.90;;;;;;5068690;28;20483;-65
2022/02/21 10:55:09;;;;;;;13.10;2.78;;;6.80;99.90;;;;;;5069012;28;20400;-68
2022/02/21 10:57:44;;;;;;;9.90;1.95;;;6.80;99.90;;;;;;5065980;28;20040;-66
2022/02/21 11:00:12;;;;;;;7.80;1.90;;;6.80;99.90;;;;;;5016577;28;20057;-68
2022/02/21 11:02:41;;;;;;;10.40;2.08;;;7.00;99.90;;;;;;5062342;28;20349;-67
2022/02/21 11:05:09;;;;;;;10.48;1.80;;;7.20;99.90;;;;;;5043467;28;20045;-67
2022/02/21 11:07:41;;;;;;;9.82;1.83;;;7.40;99.90;;;;;;5045899;28;20090;-66
2022/02/21 11:10:10;;;;;;;6.47;1.58;;;7.20;99.90;;;;;;5049912;28;20098;-67
2022/02/21 11:12:44;;;;;;;9.00;2.03;;;7.30;99.90;;;;;;5067617;28;20453;-65
2022/02/21 11:15:11;;;;;;;4.88;1.23;;;7.40;99.90;;;;;;5063890;28;20070;-67
2022/02/21 11:17:40;;;;;;;4.47;1.30;;;7.40;99.90;;;;;;5068654;28;20048;-67
2022/02/21 11:20:08;;;;;;;5.00;1.33;;;7.40;99.90;;;;;;5047696;28;20049;-63
2022/02/21 11:22:36;;;;;;;10.02;1.70;;;7.20;99.90;;;;;;5048727;28;20480;-67
2022/02/21 11:25:50;;;;;;;8.32;2.20;;;7.10;99.90;;;;;;5047961;28;20055;-67
2022/02/21 11:28:26;;;;;;;6.90;2.03;;;7.40;99.90;;;;;;5054549;28;20053;-66
2022/02/21 11:30:58;;;;;;;8.93;1.90;;;7.10;99.90;;;;;;5049755;28;20075;-64
2022/02/21 11:33:25;;;;;;;8.20;1.75;;;6.80;99.90;;;;;;5067117;28;20044;-66
2022/02/21 11:36:09;;;;;;;10.90;2.08;;;6.90;99.90;;;;;;5066657;28;20514;-66
2022/02/21 11:38:40;;;;;;;9.40;2.22;;;7.00;99.90;;;;;;5064706;28;20079;-67
2022/02/21 11:41:11;;;;;;;10.02;1.80;;;7.00;99.90;;;;;;5024170;28;20044;-67
2022/02/21 11:43:43;;;;;;;9.27;2.20;;;7.10;99.90;;;;;;5053468;28;20580;-67
2022/02/21 11:46:30;;;;;;;8.37;1.90;;;7.40;99.90;;;;;;4998327;28;1199075;-66
2022/02/21 11:49:04;;;;;;;10.27;2.03;;;7.10;99.90;;;;;;5064537;28;20037;-66
2022/02/21 11:51:33;;;;;;;4.53;1.45;;;7.20;99.90;;;;;;5062748;28;20044;-68
2022/02/21 11:54:09;;;;;;;5.93;1.73;;;7.40;99.90;;;;;;5062623;28;20508;-67
2022/02/21 11:56:57;;;;;;;6.00;1.58;;;7.50;99.90;;;;;;5052908;28;20087;-66
2022/02/21 11:59:26;;;;;;;7.78;1.90;;;7.50;99.90;;;;;;5050210;28;20113;-65
2022/02/21 12:02:02;;;;;;;8.05;1.52;;;7.30;99.90;;;;;;5050155;28;20045;-67
2022/02/21 12:04:46;;;;;;;8.75;1.85;;;7.10;99.90;;;;;;5068638;28;20503;-67
2022/02/21 12:07:36;;;;;;;9.35;1.50;;;7.00;99.90;;;;;;5068503;28;20041;-65
2022/02/21 12:10:21;;;;;;;8.60;1.52;;;6.80;99.90;;;;;;5055567;28;20108;-65
2022/02/21 12:12:59;;;;;;;7.10;1.30;;;6.40;99.90;;;;;;5065277;28;20037;-64
2022/02/21 12:15:31;;;;;;;11.88;1.90;;;6.50;99.90;;;;;;5059686;28;20048;-66
2022/02/21 12:18:07;;;;;;;5.78;1.50;;;6.60;99.90;;;;;;5065571;28;20479;-66
2022/02/21 12:20:36;;;;;;;6.65;1.40;;;6.80;99.90;;;;;;5068856;28;20045;-66
2022/02/21 12:23:13;;;;;;;7.18;1.83;;;6.60;99.90;;;;;;5047309;28;20048;-66
2022/02/21 12:26:01;;;;;;;5.40;1.17;;;6.60;99.90;;;;;;5066413;28;20127;-67
2022/02/21 12:28:32;;;;;;;6.43;1.40;;;6.70;99.90;;;;;;5049695;28;20045;-67
2022/02/21 12:31:00;;;;;;;6.70;1.30;;;6.60;99.90;;;;;;5059318;28;20044;-65
2022/02/21 12:33:33;;;;;;;5.40;1.00;;;6.60;99.90;;;;;;5065558;28;20054;-65
2022/02/21 12:36:06;;;;;;;6.25;1.58;;;6.70;99.90;;;;;;5066998;28;20423;-66
2022/02/21 12:38:36;;;;;;;4.00;1.73;;;7.10;99.90;;;;;;5049047;28;20387;-66
2022/02/21 12:41:05;;;;;;;4.20;1.50;;;7.20;99.90;;;;;;5047337;28;20535;-66
2022/02/21 12:43:48;;;;;;;3.47;1.10;;;7.00;99.90;;;;;;5066222;28;20136;-66
2022/02/21 12:46:17;;;;;;;3.17;1.02;;;7.40;99.90;;;;;;5061371;28;20086;-66
2022/02/21 12:48:45;;;;;;;6.18;1.15;;;8.20;99.90;;;;;;5070592;28;20128;-66
2022/02/21 12:51:27;;;;;;;4.00;1.27;;;8.60;99.90;;;;;;5072313;28;20487;-64
2022/02/21 12:54:05;;;;;;;6.53;1.33;;;8.40;99.90;;;;;;5072119;28;20468;-66
2022/02/21 12:56:59;;;;;;;5.55;1.40;;;8.30;99.90;;;;;;5071890;28;20044;-65
2022/02/21 12:59:33;;;;;;;4.18;1.00;;;10.50;99.90;;;;;;5071712;28;20392;-65
2022/02/21 13:02:04;;;;;;;6.47;1.25;;;11.70;99.90;;;;;;5070859;28;20039;-67
2022/02/21 13:04:33;;;;;;;4.97;1.30;;;12.70;99.90;;;;;;5071094;28;20403;-67
2022/02/21 13:07:02;;;;;;;4.22;1.60;;;14.30;99.90;;;;;;5069163;28;20051;-66